Аэропорт: Иркутск. Иркутск

ICAO: UIII

METAR:
2024-04-22 22:30:00
UIII 222230Z 31009MPS 2900 R30/1500D -SHSN OVC003CB 01/01 Q1005 R30/290150 NOSIG RMK QBB100 MT OBSC QFE710/0946
TAF:
2024-04-22 20:00:00
TAF UIII 222000Z 2221/2321 32006G14MPS 2900 -SHSNRA BKN007CB 
  TEMPO 2221/2303 VRB01MPS 0500 +SHSNRA FG VV001 
  BECMG 2303/2305 9999 NSW SCT040CB 
  BECMG 2312/2314 VRB01MPS